Time,TemperatureF,DewpointF,PressureIn,WindDirection,WindDirectionDegrees,WindSpeedMPH,WindSpeedGustMPH,Humidity,HourlyPrecipIn,Conditions,Clouds,dailyrainin,SoftwareType,DateUTC
2013-02-24 00:01:00,1.0,-10.0,29.32,SSE,163,6.0,6.0,58,0.00,,,0.00,,2013-02-24 09:01:00,
2013-02-24 00:11:00,1.0,-10.0,29.32,SSE,163,6.0,6.0,58,0.00,,,0.00,,2013-02-24 09:11:00,
2013-02-24 00:21:00,0.0,-11.0,29.32,SE,128,0.0,0.0,58,0.00,,,0.00,,2013-02-24 09:21:00,
2013-02-24 00:31:00,0.0,-11.0,29.32,SE,128,0.0,0.0,58,0.00,,,0.00,,2013-02-24 09:31:00,
2013-02-24 00:41:00,0.0,-11.0,29.32,SE,128,0.0,0.0,58,0.00,,,0.00,,2013-02-24 09:41:00,
2013-02-24 00:51:00,0.0,-11.0,29.32,South,169,0.0,0.0,58,0.00,,,0.00,,2013-02-24 09:51:00,
2013-02-24 01:01:00,0.0,-11.0,29.35,South,169,0.0,0.0,58,0.00,,,0.00,,2013-02-24 10:01:00,
2013-02-24 01:11:00,0.0,-11.0,29.32,NW,308,4.0,4.0,58,0.00,,,0.00,,2013-02-24 10:11:00,
2013-02-24 01:21:00,0.0,-11.0,29.32,NW,308,4.0,4.0,58,0.00,,,0.00,,2013-02-24 10:21:00,
2013-02-24 01:31:00,0.0,-11.0,29.35,NNW,334,0.0,0.0,58,0.00,,,0.00,,2013-02-24 10:31:00,
2013-02-24 01:41:00,0.0,-11.0,29.35,NNW,334,0.0,0.0,58,0.00,,,0.00,,2013-02-24 10:41:00,
2013-02-24 01:52:00,-1.0,-12.0,29.35,SSW,213,0.0,0.0,58,0.00,,,0.00,,2013-02-24 10:52:00,
2013-02-24 02:01:00,-2.0,-13.0,29.35,SSW,212,0.0,0.0,58,0.00,,,0.00,,2013-02-24 11:01:00,
2013-02-24 02:11:00,-2.0,-13.0,29.35,SSW,212,0.0,0.0,58,0.00,,,0.00,,2013-02-24 11:11:00,
2013-02-24 02:21:00,-2.0,-13.0,29.35,SW,221,0.0,0.0,58,0.00,,,0.00,,2013-02-24 11:21:00,
2013-02-24 02:31:00,-2.0,-13.0,29.38,SW,220,0.0,0.0,58,0.00,,,0.00,,2013-02-24 11:31:00,
2013-02-24 02:41:00,-2.0,-13.0,29.38,SW,220,0.0,0.0,58,0.00,,,0.00,,2013-02-24 11:41:00,
2013-02-24 02:52:00,-2.0,-13.0,29.38,NW,309,0.0,0.0,58,0.00,,,0.00,,2013-02-24 11:52:00,
2013-02-24 03:01:00,-2.0,-13.0,29.38,NW,307,0.0,0.0,58,0.00,,,0.00,,2013-02-24 12:01:00,
2013-02-24 03:11:00,-2.0,-13.0,29.38,NW,307,0.0,0.0,58,0.00,,,0.00,,2013-02-24 12:11:00,
2013-02-24 03:21:00,-2.0,-13.0,29.38,NW,310,0.0,0.0,58,0.00,,,0.00,,2013-02-24 12:21:00,
2013-02-24 03:31:00,-2.0,-13.0,29.38,NW,309,3.0,3.0,58,0.00,,,0.00,,2013-02-24 12:31:00,
2013-02-24 03:44:00,-2.0,-13.0,29.38,NW,309,3.0,3.0,58,0.00,,,0.00,,2013-02-24 12:44:00,
2013-02-24 03:55:00,-2.0,-13.0,29.38,NW,315,0.0,0.0,58,0.00,,,0.00,,2013-02-24 12:55:00,
2013-02-24 04:03:00,-3.0,-14.0,29.38,NW,313,0.0,0.0,58,0.00,,,0.00,,2013-02-24 13:03:00,
2013-02-24 04:23:00,-3.0,-14.0,29.38,NW,306,0.0,0.0,58,0.00,,,0.00,,2013-02-24 13:23:00,
2013-02-24 04:32:00,-2.0,-13.0,29.38,NW,306,0.0,0.0,58,0.00,,,0.00,,2013-02-24 13:32:00,
2013-02-24 04:42:00,-2.0,-13.0,29.38,NW,306,0.0,0.0,58,0.00,,,0.00,,2013-02-24 13:42:00,
2013-02-24 04:53:00,-2.0,-13.0,29.38,NW,315,0.0,0.0,58,0.00,,,0.00,,2013-02-24 13:53:00,
2013-02-24 05:01:00,-2.0,-13.0,29.38,NW,314,0.0,0.0,58,0.00,,,0.00,,2013-02-24 14:01:00,
2013-02-24 05:22:00,-2.0,-13.0,29.41,NW,313,0.0,0.0,58,0.00,,,0.00,,2013-02-24 14:22:00,
2013-02-24 05:31:00,-2.0,-13.0,29.41,NW,317,0.0,0.0,58,0.00,,,0.00,,2013-02-24 14:31:00,
2013-02-24 05:42:00,-2.0,-13.0,29.41,NW,317,0.0,0.0,58,0.00,,,0.00,,2013-02-24 14:42:00,
2013-02-24 05:53:00,-2.0,-13.0,29.41,NNW,330,0.0,0.0,58,0.00,,,0.00,,2013-02-24 14:53:00,
2013-02-24 06:01:00,-2.0,-13.0,29.41,NNW,329,0.0,0.0,58,0.00,,,0.00,,2013-02-24 15:01:00,
2013-02-24 06:11:00,-2.0,-13.0,29.41,NNW,331,0.0,0.0,58,0.00,,,0.00,,2013-02-24 15:11:00,
2013-02-24 06:22:00,-2.0,-13.0,29.41,NNW,331,0.0,0.0,58,0.00,,,0.00,,2013-02-24 15:22:00,
2013-02-24 06:31:00,-2.0,-13.0,29.41,NNW,331,0.0,0.0,58,0.00,,,0.00,,2013-02-24 15:31:00,
2013-02-24 06:41:00,-2.0,-13.0,29.41,NNW,331,0.0,0.0,58,0.00,,,0.00,,2013-02-24 15:41:00,
2013-02-24 06:52:00,-3.0,-14.0,29.44,NNW,331,0.0,0.0,58,0.00,,,0.00,,2013-02-24 15:52:00,
2013-02-24 07:01:00,-3.0,-14.0,29.44,NNW,330,0.0,0.0,58,0.00,,,0.00,,2013-02-24 16:01:00,
2013-02-24 07:11:00,-4.0,-15.0,29.44,NNW,329,0.0,0.0,58,0.00,,,0.00,,2013-02-24 16:11:00,
2013-02-24 07:21:00,-4.0,-15.0,29.44,NNW,329,0.0,0.0,58,0.00,,,0.00,,2013-02-24 16:21:00,
2013-02-24 07:31:00,-4.0,-15.0,29.44,NNW,329,0.0,0.0,58,0.00,,,0.00,,2013-02-24 16:31:00,
2013-02-24 07:41:00,-4.0,-15.0,29.44,NNW,329,0.0,0.0,58,0.00,,,0.00,,2013-02-24 16:41:00,
2013-02-24 07:52:00,-5.0,-16.0,29.44,NNW,330,0.0,0.0,58,0.00,,,0.00,,2013-02-24 16:52:00,
2013-02-24 08:01:00,-5.0,-16.0,29.47,NW,326,0.0,0.0,58,0.00,,,0.00,,2013-02-24 17:01:00,
2013-02-24 08:11:00,-5.0,-16.0,29.47,NW,326,0.0,0.0,58,0.00,,,0.00,,2013-02-24 17:11:00,
2013-02-24 08:21:00,-6.0,-17.0,29.47,NNW,330,0.0,0.0,58,0.00,,,0.00,,2013-02-24 17:21:00,
2013-02-24 08:31:00,-7.0,-18.0,29.47,NNW,330,0.0,0.0,58,0.00,,,0.00,,2013-02-24 17:31:00,
2013-02-24 08:41:00,-7.0,-18.0,29.47,NNW,330,0.0,0.0,58,0.00,,,0.00,,2013-02-24 17:41:00,
2013-02-24 08:52:00,-7.0,-18.0,29.47,NNW,338,0.0,0.0,58,0.00,,,0.00,,2013-02-24 17:52:00,
2013-02-24 09:01:00,-7.0,-18.0,29.47,NNW,329,0.0,0.0,58,0.00,,,0.00,,2013-02-24 18:01:00,
2013-02-24 09:11:00,-7.0,-18.0,29.47,NNW,329,0.0,0.0,58,0.00,,,0.00,,2013-02-24 18:11:00,
2013-02-24 09:21:00,-8.0,-19.0,29.50,NNW,330,0.0,0.0,58,0.00,,,0.00,,2013-02-24 18:21:00,
2013-02-24 09:31:00,-8.0,-19.0,29.50,NNW,330,0.0,0.0,58,0.00,,,0.00,,2013-02-24 18:31:00,
2013-02-24 09:41:00,-8.0,-19.0,29.50,NNW,330,0.0,0.0,58,0.00,,,0.00,,2013-02-24 18:41:00,
2013-02-24 09:52:00,-8.0,-19.0,29.50,NNW,330,0.0,0.0,58,0.00,,,0.00,,2013-02-24 18:52:00,
2013-02-24 10:01:00,-8.0,-19.0,29.50,NNW,330,0.0,0.0,58,0.00,,,0.00,,2013-02-24 19:01:00,
2013-02-24 10:11:00,-8.0,-19.0,29.50,NNW,330,0.0,0.0,58,0.00,,,0.00,,2013-02-24 19:11:00,
2013-02-24 10:21:00,-7.0,-18.0,29.50,NNW,330,0.0,0.0,58,0.00,,,0.00,,2013-02-24 19:21:00,
2013-02-24 10:31:00,-7.0,-18.0,29.53,NNW,330,0.0,0.0,58,0.00,,,0.00,,2013-02-24 19:31:00,
2013-02-24 10:41:00,-7.0,-18.0,29.53,NNW,330,0.0,0.0,58,0.00,,,0.00,,2013-02-24 19:41:00,
2013-02-24 10:52:00,-7.0,-18.0,29.53,NNW,330,0.0,0.0,58,0.00,,,0.00,,2013-02-24 19:52:00,
2013-02-24 11:01:00,-7.0,-18.0,29.53,NNW,330,0.0,0.0,58,0.00,,,0.00,,2013-02-24 20:01:00,
2013-02-24 11:11:00,-7.0,-18.0,29.53,NNW,330,0.0,0.0,58,0.00,,,0.00,,2013-02-24 20:11:00,
2013-02-24 11:21:00,-6.0,-17.0,29.53,NNW,330,0.0,0.0,58,0.00,,,0.00,,2013-02-24 20:21:00,
2013-02-24 11:31:00,-6.0,-17.0,29.53,NNW,330,0.0,0.0,58,0.00,,,0.00,,2013-02-24 20:31:00,
2013-02-24 11:41:00,-6.0,-17.0,29.53,NNW,330,0.0,0.0,58,0.00,,,0.00,,2013-02-24 20:41:00,
2013-02-24 11:52:00,-6.0,-17.0,29.53,NNW,330,0.0,0.0,58,0.00,,,0.00,,2013-02-24 20:52:00,
2013-02-24 12:01:00,-5.0,-16.0,29.53,NNW,335,0.0,0.0,58,0.00,,,0.00,,2013-02-24 21:01:00,
2013-02-24 12:11:00,-5.0,-16.0,29.53,NNW,335,0.0,0.0,58,0.00,,,0.00,,2013-02-24 21:11:00,
2013-02-24 12:21:00,-5.0,-16.0,29.56,NNW,335,0.0,0.0,58,0.00,,,0.00,,2013-02-24 21:21:00,
2013-02-24 12:31:00,-5.0,-16.0,29.56,NNW,334,0.0,0.0,58,0.00,,,0.00,,2013-02-24 21:31:00,
2013-02-24 12:41:00,-5.0,-16.0,29.56,NNW,334,0.0,0.0,58,0.00,,,0.00,,2013-02-24 21:41:00,
2013-02-24 12:52:00,-5.0,-16.0,29.56,NNW,334,0.0,0.0,58,0.00,,,0.00,,2013-02-24 21:52:00,
2013-02-24 13:01:00,-3.0,-14.0,29.56,NNW,334,0.0,0.0,58,0.00,,,0.00,,2013-02-24 22:01:00,
2013-02-24 13:11:00,-3.0,-14.0,29.56,NNW,334,0.0,0.0,58,0.00,,,0.00,,2013-02-24 22:11:00,
2013-02-24 13:21:00,-2.0,-13.0,29.56,NNE,13,0.0,0.0,58,0.00,,,0.00,,2013-02-24 22:21:00,
2013-02-24 13:31:00,-2.0,-13.0,29.56,East,85,0.0,0.0,58,0.00,,,0.00,,2013-02-24 22:31:00,
2013-02-24 13:41:00,-2.0,-13.0,29.56,East,85,0.0,0.0,58,0.00,,,0.00,,2013-02-24 22:41:00,
2013-02-24 13:52:00,-2.0,-13.0,29.56,East,89,0.0,0.0,58,0.00,,,0.00,,2013-02-24 22:52:00,
2013-02-24 14:01:00,-1.0,-12.0,29.56,East,93,0.0,0.0,58,0.00,,,0.00,,2013-02-24 23:01:00,
2013-02-24 14:11:00,-1.0,-12.0,29.56,East,93,0.0,0.0,58,0.00,,,0.00,,2013-02-24 23:11:00,
2013-02-24 14:21:00,-1.0,-12.0,29.56,SE,130,0.0,0.0,58,0.00,,,0.00,,2013-02-24 23:21:00,
2013-02-24 14:31:00,0.0,-11.0,29.56,SE,130,0.0,0.0,58,0.00,,,0.00,,2013-02-24 23:31:00,
2013-02-24 14:41:00,0.0,-11.0,29.56,SE,130,0.0,0.0,58,0.00,,,0.00,,2013-02-24 23:41:00,
2013-02-24 14:52:00,0.0,-11.0,29.56,SE,144,3.0,3.0,58,0.00,,,0.00,,2013-02-24 23:52:00,
2013-02-24 15:01:00,0.0,-11.0,29.56,SE,126,0.0,0.0,58,0.00,,,0.00,,2013-02-25 00:01:00,
2013-02-24 15:11:00,0.0,-11.0,29.56,SE,126,0.0,0.0,58,0.00,,,0.00,,2013-02-25 00:11:00,
2013-02-24 15:21:00,1.0,-10.0,29.56,ESE,104,0.0,0.0,58,0.00,,,0.00,,2013-02-25 00:21:00,
2013-02-24 15:31:00,1.0,-10.0,29.56,East,85,0.0,0.0,58,0.00,,,0.00,,2013-02-25 00:31:00,
2013-02-24 15:41:00,1.0,-10.0,29.56,East,85,0.0,0.0,58,0.00,,,0.00,,2013-02-25 00:41:00,
2013-02-24 15:51:00,2.0,-9.0,29.59,East,97,0.0,0.0,58,0.00,,,0.00,,2013-02-25 00:51:00,
2013-02-24 16:01:00,3.0,-8.0,29.59,East,94,0.0,0.0,58,0.00,,,0.00,,2013-02-25 01:01:00,
2013-02-24 16:11:00,2.0,-9.0,29.59,East,92,0.0,0.0,58,0.00,,,0.00,,2013-02-25 01:11:00,
2013-02-24 16:21:00,2.0,-9.0,29.59,East,92,0.0,0.0,58,0.00,,,0.00,,2013-02-25 01:21:00,
2013-02-24 16:31:00,1.0,-10.0,29.59,East,94,0.0,0.0,58,0.00,,,0.00,,2013-02-25 01:31:00,
2013-02-24 16:41:00,1.0,-10.0,29.59,East,94,0.0,0.0,58,0.00,,,0.00,,2013-02-25 01:41:00,
2013-02-24 16:51:00,1.0,-10.0,29.59,East,94,0.0,0.0,58,0.00,,,0.00,,2013-02-25 01:51:00,
2013-02-24 17:01:00,0.0,-11.0,29.59,East,95,0.0,0.0,58,0.00,,,0.00,,2013-02-25 02:01:00,
2013-02-24 17:11:00,0.0,-11.0,29.59,East,95,0.0,0.0,58,0.00,,,0.00,,2013-02-25 02:11:00,
2013-02-24 17:21:00,0.0,-11.0,29.59,East,95,0.0,0.0,58,0.00,,,0.00,,2013-02-25 02:21:00,
2013-02-24 17:31:00,0.0,-11.0,29.59,East,95,0.0,0.0,58,0.00,,,0.00,,2013-02-25 02:31:00,
2013-02-24 17:41:00,0.0,-11.0,29.59,East,95,0.0,0.0,58,0.00,,,0.00,,2013-02-25 02:41:00,
2013-02-24 17:52:00,0.0,-11.0,29.62,East,95,0.0,0.0,58,0.00,,,0.00,,2013-02-25 02:52:00,
2013-02-24 18:01:00,-1.0,-12.0,29.62,East,95,0.0,0.0,58,0.00,,,0.00,,2013-02-25 03:01:00,
2013-02-24 18:11:00,-1.0,-12.0,29.62,East,95,0.0,0.0,58,0.00,,,0.00,,2013-02-25 03:11:00,
2013-02-24 18:21:00,-1.0,-12.0,29.62,East,95,0.0,0.0,58,0.00,,,0.00,,2013-02-25 03:21:00,
2013-02-24 18:31:00,-2.0,-13.0,29.62,East,95,0.0,0.0,58,0.00,,,0.00,,2013-02-25 03:31:00,
2013-02-24 18:41:00,-2.0,-13.0,29.62,East,95,0.0,0.0,58,0.00,,,0.00,,2013-02-25 03:41:00,
2013-02-24 18:51:00,-2.0,-13.0,29.62,East,95,0.0,0.0,58,0.00,,,0.00,,2013-02-25 03:51:00,
2013-02-24 19:01:00,-2.0,-13.0,29.62,East,95,0.0,0.0,58,0.00,,,0.00,,2013-02-25 04:01:00,
2013-02-24 19:11:00,-2.0,-13.0,29.62,East,95,0.0,0.0,58,0.00,,,0.00,,2013-02-25 04:11:00,
2013-02-24 19:21:00,-2.0,-13.0,29.62,East,95,0.0,0.0,58,0.00,,,0.00,,2013-02-25 04:21:00,
2013-02-24 19:31:00,-2.0,-13.0,29.65,East,95,0.0,0.0,58,0.00,,,0.00,,2013-02-25 04:31:00,
2013-02-24 19:41:00,-2.0,-13.0,29.65,East,95,0.0,0.0,58,0.00,,,0.00,,2013-02-25 04:41:00,
2013-02-24 19:51:00,-3.0,-14.0,29.65,East,95,0.0,0.0,58,0.00,,,0.00,,2013-02-25 04:51:00,
2013-02-24 20:01:00,-3.0,-14.0,29.65,East,95,0.0,0.0,58,0.00,,,0.00,,2013-02-25 05:01:00,
2013-02-24 20:11:00,-3.0,-14.0,29.65,East,95,0.0,0.0,58,0.00,,,0.00,,2013-02-25 05:11:00,
2013-02-24 20:21:00,-3.0,-14.0,29.65,East,95,0.0,0.0,58,0.00,,,0.00,,2013-02-25 05:21:00,
2013-02-24 20:31:00,-3.0,-14.0,29.65,East,95,0.0,0.0,58,0.00,,,0.00,,2013-02-25 05:31:00,
2013-02-24 20:41:00,-3.0,-14.0,29.65,East,95,0.0,0.0,58,0.00,,,0.00,,2013-02-25 05:41:00,
2013-02-24 20:52:00,-3.0,-14.0,29.65,East,95,0.0,0.0,58,0.00,,,0.00,,2013-02-25 05:52:00,
2013-02-24 21:02:00,-3.0,-14.0,29.65,East,95,0.0,0.0,58,0.00,,,0.00,,2013-02-25 06:02:00,
2013-02-24 21:11:00,-3.0,-14.0,29.65,East,95,0.0,0.0,58,0.00,,,0.00,,2013-02-25 06:11:00,
2013-02-24 21:21:00,-3.0,-14.0,29.65,East,95,0.0,0.0,58,0.00,,,0.00,,2013-02-25 06:21:00,
2013-02-24 21:31:00,-3.0,-14.0,29.65,East,95,0.0,0.0,58,0.00,,,0.00,,2013-02-25 06:31:00,
2013-02-24 21:41:00,-3.0,-14.0,29.65,East,95,0.0,0.0,58,0.00,,,0.00,,2013-02-25 06:41:00,
2013-02-24 21:51:00,-3.0,-14.0,29.65,East,95,0.0,0.0,58,0.00,,,0.00,,2013-02-25 06:51:00,
2013-02-24 22:01:00,-3.0,-14.0,29.65,East,95,0.0,0.0,58,0.00,,,0.00,,2013-02-25 07:01:00,
2013-02-24 22:11:00,-3.0,-14.0,29.65,East,95,0.0,0.0,58,0.00,,,0.00,,2013-02-25 07:11:00,
2013-02-24 22:21:00,-3.0,-14.0,29.65,East,95,0.0,0.0,58,0.00,,,0.00,,2013-02-25 07:21:00,
2013-02-24 22:31:00,-3.0,-14.0,29.65,East,95,0.0,0.0,58,0.00,,,0.00,,2013-02-25 07:31:00,
2013-02-24 22:41:00,-3.0,-14.0,29.65,East,95,0.0,0.0,58,0.00,,,0.00,,2013-02-25 07:41:00,
2013-02-24 22:52:00,-3.0,-14.0,29.65,East,96,0.0,0.0,58,0.00,,,0.00,,2013-02-25 07:52:00,
2013-02-24 23:01:00,-4.0,-15.0,29.65,East,94,0.0,0.0,58,0.00,,,0.00,,2013-02-25 08:01:00,
2013-02-24 23:11:00,-4.0,-15.0,29.68,East,94,0.0,0.0,58,0.00,,,0.00,,2013-02-25 08:11:00,
2013-02-24 23:21:00,-4.0,-15.0,29.68,East,94,0.0,0.0,58,0.00,,,0.00,,2013-02-25 08:21:00,
2013-02-24 23:31:00,-4.0,-15.0,29.68,East,97,0.0,0.0,58,0.00,,,0.00,,2013-02-25 08:31:00,
2013-02-24 23:41:00,-4.0,-15.0,29.68,East,97,0.0,0.0,58,0.00,,,0.00,,2013-02-25 08:41:00,
2013-02-24 23:51:00,-4.0,-15.0,29.68,East,94,0.0,0.0,58,0.00,,,0.00,,2013-02-25 08:51:00,